Terminal Aerodrome Forecast
Issued by NWS

Home | Current Version | Previous Version | Text Only | Print | Product List | Glossary On
Versions: 1 2 3 4 5 6 7 8 9 10 11 12 13 14 15 16 17 18 19 20 21 22
000
FTUS45 KBOU 221136
TAFAPA
TAF
KAPA 221136Z 2212/2312 18007KT P6SM FEW150 BKN220
     FM221900 33009KT P6SM SCT120 BKN220
      TEMPO 2221/2224 33011G21KT
     FM230200 20006KT P6SM FEW120 SCT220=

USA.gov is the U.S. government's official web portal to all federal, state and local government web resources and services.